KFIT

Fitchburg Municipal Airport

Fitchburg, Massachusetts, USA
METAR KFIT 191452Z AUTO 31006KT 8SM OVC037 M02/M07 A2998 RMK AO2 SLP157 T10171072 52007
Observed Flight Rules
Jan-19 @ 14:52 UTC (38 minutes ago) Visual Flight Rules
Wind Visibility Clouds
310° at 6 knots 8 miles
  • Overcast at 3,700' AGL
Temperatures Readings
Current -2°C / 28°F
Dewpoint -7°C / 19°F
Humidity 69%
Altimeter 29.98" Hg
Pressure 1015.7 hPa
Elevation 103
METAR KFIT 191452Z AUTO 31006KT 8SM OVC037 M02/M07 A2998 RMK AO2 SLP157 T10171072 52007
Observed Flight Rules
Jan-19 @ 14:52 UTC
(38 minutes ago)
VFR
Wind Visibility
310° at 6 knots 8 miles
Clouds
  • Overcast at 3,700' AGL
Temperature Dewpoint
-2°C / 28°F -7°C / 19°F
Humidity Altimeter Pressure
69% 29.98" Hg 1015.7 hPa